sensor_id;sensor_type;location;lat;lon;timestamp;P1;durP1;ratioP1;P2;durP2;ratioP2
28309;SDS011;15571;50.974;13.936;2022-07-29T00:03:01;3.92;;;2.22;;
28309;SDS011;15571;50.974;13.936;2022-07-29T00:06:06;3.58;;;1.48;;
28309;SDS011;15571;50.974;13.936;2022-07-29T00:09:09;2.67;;;1.48;;
28309;SDS011;15571;50.974;13.936;2022-07-29T00:12:12;4.05;;;1.60;;
28309;SDS011;15571;50.974;13.936;2022-07-29T00:15:19;4.32;;;1.65;;
28309;SDS011;15571;50.974;13.936;2022-07-29T00:18:22;3.75;;;1.60;;
28309;SDS011;15571;50.974;13.936;2022-07-29T00:21:24;3.00;;;1.25;;
28309;SDS011;15571;50.974;13.936;2022-07-29T00:24:27;6.22;;;2.03;;
28309;SDS011;15571;50.974;13.936;2022-07-29T00:27:34;7.50;;;2.50;;
28309;SDS011;15571;50.974;13.936;2022-07-29T00:30:43;5.53;;;2.05;;
28309;SDS011;15571;50.974;13.936;2022-07-29T00:33:46;5.93;;;2.22;;
28309;SDS011;15571;50.974;13.936;2022-07-29T00:36:49;6.18;;;2.42;;
28309;SDS011;15571;50.974;13.936;2022-07-29T00:39:50;3.80;;;2.60;;
28309;SDS011;15571;50.974;13.936;2022-07-29T00:42:53;7.10;;;2.47;;
28309;SDS011;15571;50.974;13.936;2022-07-29T00:45:57;8.20;;;2.25;;
28309;SDS011;15571;50.974;13.936;2022-07-29T00:49:00;5.82;;;2.00;;
28309;SDS011;15571;50.974;13.936;2022-07-29T00:52:03;4.05;;;1.80;;
28309;SDS011;15571;50.974;13.936;2022-07-29T00:55:09;7.80;;;2.30;;
28309;SDS011;15571;50.974;13.936;2022-07-29T00:58:14;6.70;;;2.15;;
28309;SDS011;15571;50.974;13.936;2022-07-29T01:01:19;4.20;;;2.05;;
28309;SDS011;15571;50.974;13.936;2022-07-29T01:04:25;5.90;;;2.60;;
28309;SDS011;15571;50.974;13.936;2022-07-29T01:07:28;6.18;;;2.65;;
28309;SDS011;15571;50.974;13.936;2022-07-29T01:10:32;8.57;;;3.25;;
28309;SDS011;15571;50.974;13.936;2022-07-29T01:13:39;15.43;;;4.10;;
28309;SDS011;15571;50.974;13.936;2022-07-29T01:16:48;10.18;;;5.15;;
28309;SDS011;15571;50.974;13.936;2022-07-29T01:19:58;11.05;;;4.00;;
28309;SDS011;15571;50.974;13.936;2022-07-29T01:23:18;14.93;;;5.47;;
28309;SDS011;15571;50.974;13.936;2022-07-29T01:26:42;11.80;;;6.53;;
28309;SDS011;15571;50.974;13.936;2022-07-29T01:29:52;11.10;;;6.97;;
28309;SDS011;15571;50.974;13.936;2022-07-29T01:32:58;16.55;;;6.35;;
28309;SDS011;15571;50.974;13.936;2022-07-29T01:36:07;12.50;;;5.82;;
28309;SDS011;15571;50.974;13.936;2022-07-29T01:39:17;11.18;;;6.85;;
28309;SDS011;15571;50.974;13.936;2022-07-29T01:42:25;11.55;;;6.45;;
28309;SDS011;15571;50.974;13.936;2022-07-29T01:45:36;11.63;;;6.60;;
28309;SDS011;15571;50.974;13.936;2022-07-29T01:48:45;12.07;;;7.55;;
28309;SDS011;15571;50.974;13.936;2022-07-29T01:51:52;15.90;;;7.55;;
28309;SDS011;15571;50.974;13.936;2022-07-29T01:55:02;12.65;;;7.85;;
28309;SDS011;15571;50.974;13.936;2022-07-29T01:58:11;16.40;;;8.65;;
28309;SDS011;15571;50.974;13.936;2022-07-29T02:01:17;14.02;;;7.05;;
28309;SDS011;15571;50.974;13.936;2022-07-29T02:04:22;13.63;;;8.48;;
28309;SDS011;15571;50.974;13.936;2022-07-29T02:07:28;14.80;;;9.13;;
28309;SDS011;15571;50.974;13.936;2022-07-29T02:10:34;16.38;;;9.80;;
28309;SDS011;15571;50.974;13.936;2022-07-29T02:13:40;15.93;;;9.55;;
28309;SDS011;15571;50.974;13.936;2022-07-29T02:16:53;14.13;;;7.73;;
28309;SDS011;15571;50.974;13.936;2022-07-29T02:19:59;13.90;;;8.32;;
28309;SDS011;15571;50.974;13.936;2022-07-29T02:23:03;12.82;;;6.93;;
28309;SDS011;15571;50.974;13.936;2022-07-29T02:26:06;15.63;;;8.70;;
28309;SDS011;15571;50.974;13.936;2022-07-29T02:29:10;14.93;;;8.70;;
28309;SDS011;15571;50.974;13.936;2022-07-29T02:32:19;16.77;;;8.98;;
28309;SDS011;15571;50.974;13.936;2022-07-29T02:35:25;20.42;;;10.85;;
28309;SDS011;15571;50.974;13.936;2022-07-29T02:38:29;25.90;;;11.30;;
28309;SDS011;15571;50.974;13.936;2022-07-29T02:41:52;22.67;;;10.88;;
28309;SDS011;15571;50.974;13.936;2022-07-29T02:45:00;18.98;;;11.70;;
28309;SDS011;15571;50.974;13.936;2022-07-29T02:48:05;17.33;;;10.68;;
28309;SDS011;15571;50.974;13.936;2022-07-29T02:51:17;20.35;;;11.73;;
28309;SDS011;15571;50.974;13.936;2022-07-29T02:54:26;21.13;;;11.35;;
28309;SDS011;15571;50.974;13.936;2022-07-29T02:57:35;23.23;;;13.02;;
28309;SDS011;15571;50.974;13.936;2022-07-29T03:00:42;23.55;;;12.98;;
28309;SDS011;15571;50.974;13.936;2022-07-29T03:03:50;25.70;;;14.98;;
28309;SDS011;15571;50.974;13.936;2022-07-29T03:06:55;24.58;;;12.95;;
28309;SDS011;15571;50.974;13.936;2022-07-29T03:10:01;20.50;;;12.18;;
28309;SDS011;15571;50.974;13.936;2022-07-29T03:13:07;22.50;;;12.95;;
28309;SDS011;15571;50.974;13.936;2022-07-29T03:16:11;21.95;;;13.10;;
28309;SDS011;15571;50.974;13.936;2022-07-29T03:19:17;23.08;;;12.60;;
28309;SDS011;15571;50.974;13.936;2022-07-29T03:22:25;19.77;;;12.18;;
28309;SDS011;15571;50.974;13.936;2022-07-29T03:25:32;23.92;;;13.80;;
28309;SDS011;15571;50.974;13.936;2022-07-29T03:28:35;22.42;;;13.43;;
28309;SDS011;15571;50.974;13.936;2022-07-29T03:31:38;30.27;;;17.30;;
28309;SDS011;15571;50.974;13.936;2022-07-29T03:34:50;26.50;;;14.95;;
28309;SDS011;15571;50.974;13.936;2022-07-29T03:37:53;29.75;;;17.25;;
28309;SDS011;15571;50.974;13.936;2022-07-29T03:40:58;31.65;;;17.42;;
28309;SDS011;15571;50.974;13.936;2022-07-29T03:44:03;30.40;;;18.52;;
28309;SDS011;15571;50.974;13.936;2022-07-29T03:47:10;37.60;;;18.65;;
28309;SDS011;15571;50.974;13.936;2022-07-29T03:50:23;30.55;;;18.23;;
28309;SDS011;15571;50.974;13.936;2022-07-29T03:53:27;32.47;;;18.60;;
28309;SDS011;15571;50.974;13.936;2022-07-29T03:56:31;30.42;;;18.67;;
28309;SDS011;15571;50.974;13.936;2022-07-29T03:59:39;36.58;;;20.70;;
28309;SDS011;15571;50.974;13.936;2022-07-29T04:02:44;34.78;;;21.08;;
28309;SDS011;15571;50.974;13.936;2022-07-29T04:06:00;45.25;;;24.60;;
28309;SDS011;15571;50.974;13.936;2022-07-29T04:09:07;40.55;;;23.90;;
28309;SDS011;15571;50.974;13.936;2022-07-29T04:12:11;46.42;;;28.20;;
28309;SDS011;15571;50.974;13.936;2022-07-29T04:15:14;57.83;;;30.67;;
28309;SDS011;15571;50.974;13.936;2022-07-29T04:18:17;56.97;;;32.83;;
28309;SDS011;15571;50.974;13.936;2022-07-29T04:21:21;61.47;;;36.03;;
28309;SDS011;15571;50.974;13.936;2022-07-29T04:24:29;65.55;;;38.20;;
28309;SDS011;15571;50.974;13.936;2022-07-29T04:27:33;70.25;;;36.53;;
28309;SDS011;15571;50.974;13.936;2022-07-29T04:30:37;56.92;;;34.50;;
28309;SDS011;15571;50.974;13.936;2022-07-29T04:33:39;64.40;;;35.47;;
28309;SDS011;15571;50.974;13.936;2022-07-29T04:36:46;58.08;;;33.67;;
28309;SDS011;15571;50.974;13.936;2022-07-29T04:39:52;62.55;;;34.97;;
28309;SDS011;15571;50.974;13.936;2022-07-29T04:42:55;60.35;;;36.95;;
28309;SDS011;15571;50.974;13.936;2022-07-29T04:45:58;72.85;;;38.78;;
28309;SDS011;15571;50.974;13.936;2022-07-29T04:49:04;67.65;;;42.58;;
28309;SDS011;15571;50.974;13.936;2022-07-29T04:52:09;92.15;;;50.40;;
28309;SDS011;15571;50.974;13.936;2022-07-29T04:55:11;116.65;;;63.47;;
28309;SDS011;15571;50.974;13.936;2022-07-29T04:58:16;114.55;;;64.85;;
28309;SDS011;15571;50.974;13.936;2022-07-29T05:01:21;128.00;;;73.07;;
28309;SDS011;15571;50.974;13.936;2022-07-29T05:04:24;143.15;;;78.80;;
28309;SDS011;15571;50.974;13.936;2022-07-29T05:07:29;149.00;;;88.40;;
28309;SDS011;15571;50.974;13.936;2022-07-29T05:10:32;185.88;;;104.28;;
28309;SDS011;15571;50.974;13.936;2022-07-29T05:13:39;185.45;;;110.20;;
28309;SDS011;15571;50.974;13.936;2022-07-29T05:16:43;201.88;;;114.93;;
28309;SDS011;15571;50.974;13.936;2022-07-29T05:19:51;214.82;;;123.15;;
28309;SDS011;15571;50.974;13.936;2022-07-29T05:22:56;216.48;;;128.95;;
28309;SDS011;15571;50.974;13.936;2022-07-29T05:25:59;205.18;;;118.28;;
28309;SDS011;15571;50.974;13.936;2022-07-29T05:29:04;191.43;;;113.22;;
28309;SDS011;15571;50.974;13.936;2022-07-29T05:32:08;192.68;;;110.28;;
28309;SDS011;15571;50.974;13.936;2022-07-29T05:35:12;202.77;;;113.65;;
28309;SDS011;15571;50.974;13.936;2022-07-29T05:38:17;192.40;;;114.90;;
28309;SDS011;15571;50.974;13.936;2022-07-29T05:41:20;238.63;;;134.38;;
28309;SDS011;15571;50.974;13.936;2022-07-29T05:44:23;246.00;;;142.82;;
28309;SDS011;15571;50.974;13.936;2022-07-29T05:47:26;285.23;;;168.50;;
28309;SDS011;15571;50.974;13.936;2022-07-29T05:50:29;315.45;;;186.43;;
28309;SDS011;15571;50.974;13.936;2022-07-29T05:53:34;332.00;;;196.70;;
28309;SDS011;15571;50.974;13.936;2022-07-29T05:56:37;335.02;;;197.52;;
28309;SDS011;15571;50.974;13.936;2022-07-29T05:59:41;321.48;;;191.43;;
28309;SDS011;15571;50.974;13.936;2022-07-29T06:02:46;325.88;;;190.00;;
28309;SDS011;15571;50.974;13.936;2022-07-29T06:05:52;312.58;;;183.65;;
28309;SDS011;15571;50.974;13.936;2022-07-29T06:08:58;279.13;;;165.65;;
28309;SDS011;15571;50.974;13.936;2022-07-29T06:12:01;256.15;;;154.25;;
28309;SDS011;15571;50.974;13.936;2022-07-29T06:15:17;260.35;;;151.80;;
28309;SDS011;15571;50.974;13.936;2022-07-29T06:18:20;218.13;;;133.32;;
28309;SDS011;15571;50.974;13.936;2022-07-29T06:21:25;235.23;;;136.45;;
28309;SDS011;15571;50.974;13.936;2022-07-29T06:24:30;242.45;;;139.43;;
28309;SDS011;15571;50.974;13.936;2022-07-29T06:27:33;240.25;;;141.10;;
28309;SDS011;15571;50.974;13.936;2022-07-29T06:30:41;253.10;;;143.63;;
28309;SDS011;15571;50.974;13.936;2022-07-29T06:33:45;224.15;;;131.23;;
28309;SDS011;15571;50.974;13.936;2022-07-29T06:36:48;207.68;;;121.80;;
28309;SDS011;15571;50.974;13.936;2022-07-29T06:39:54;192.68;;;113.75;;
28309;SDS011;15571;50.974;13.936;2022-07-29T06:43:11;183.88;;;110.65;;
28309;SDS011;15571;50.974;13.936;2022-07-29T06:46:14;192.18;;;117.47;;
28309;SDS011;15571;50.974;13.936;2022-07-29T06:49:18;189.95;;;111.35;;
28309;SDS011;15571;50.974;13.936;2022-07-29T06:52:21;186.80;;;107.38;;
28309;SDS011;15571;50.974;13.936;2022-07-29T06:55:27;199.80;;;116.10;;
28309;SDS011;15571;50.974;13.936;2022-07-29T06:58:31;206.85;;;122.72;;
28309;SDS011;15571;50.974;13.936;2022-07-29T07:01:34;233.63;;;137.65;;
28309;SDS011;15571;50.974;13.936;2022-07-29T07:04:38;254.35;;;153.82;;
28309;SDS011;15571;50.974;13.936;2022-07-29T07:07:44;239.43;;;145.00;;
28309;SDS011;15571;50.974;13.936;2022-07-29T07:10:48;219.85;;;132.48;;
28309;SDS011;15571;50.974;13.936;2022-07-29T07:13:51;222.85;;;127.53;;
28309;SDS011;15571;50.974;13.936;2022-07-29T07:16:54;193.20;;;113.05;;
28309;SDS011;15571;50.974;13.936;2022-07-29T07:19:56;170.93;;;102.13;;
28309;SDS011;15571;50.974;13.936;2022-07-29T07:23:00;160.70;;;98.03;;
28309;SDS011;15571;50.974;13.936;2022-07-29T07:26:04;157.40;;;96.53;;
28309;SDS011;15571;50.974;13.936;2022-07-29T07:29:11;145.43;;;89.93;;
28309;SDS011;15571;50.974;13.936;2022-07-29T07:32:14;138.77;;;85.10;;
28309;SDS011;15571;50.974;13.936;2022-07-29T07:35:17;127.00;;;74.65;;
28309;SDS011;15571;50.974;13.936;2022-07-29T07:38:20;105.05;;;63.42;;
28309;SDS011;15571;50.974;13.936;2022-07-29T07:41:28;102.72;;;61.47;;
28309;SDS011;15571;50.974;13.936;2022-07-29T07:44:31;92.75;;;53.85;;
28309;SDS011;15571;50.974;13.936;2022-07-29T07:47:34;83.05;;;47.60;;
28309;SDS011;15571;50.974;13.936;2022-07-29T07:50:38;75.22;;;43.13;;
28309;SDS011;15571;50.974;13.936;2022-07-29T07:53:44;65.95;;;39.97;;
28309;SDS011;15571;50.974;13.936;2022-07-29T07:56:51;52.50;;;33.55;;
28309;SDS011;15571;50.974;13.936;2022-07-29T07:59:53;60.22;;;35.75;;
28309;SDS011;15571;50.974;13.936;2022-07-29T08:02:56;71.63;;;42.03;;
28309;SDS011;15571;50.974;13.936;2022-07-29T08:06:00;89.55;;;54.45;;
28309;SDS011;15571;50.974;13.936;2022-07-29T08:09:04;94.13;;;56.45;;
28309;SDS011;15571;50.974;13.936;2022-07-29T08:12:09;90.93;;;53.00;;
28309;SDS011;15571;50.974;13.936;2022-07-29T08:15:11;87.53;;;52.50;;
28309;SDS011;15571;50.974;13.936;2022-07-29T08:18:14;75.18;;;47.58;;
28309;SDS011;15571;50.974;13.936;2022-07-29T08:21:17;65.28;;;45.20;;
28309;SDS011;15571;50.974;13.936;2022-07-29T08:24:20;68.70;;;43.95;;
28309;SDS011;15571;50.974;13.936;2022-07-29T08:27:42;75.50;;;44.00;;
28309;SDS011;15571;50.974;13.936;2022-07-29T08:30:45;73.15;;;40.00;;
28309;SDS011;15571;50.974;13.936;2022-07-29T08:33:48;64.60;;;39.35;;
28309;SDS011;15571;50.974;13.936;2022-07-29T08:36:53;54.60;;;36.00;;
28309;SDS011;15571;50.974;13.936;2022-07-29T08:39:59;56.10;;;33.97;;
28309;SDS011;15571;50.974;13.936;2022-07-29T08:43:07;44.30;;;29.42;;
28309;SDS011;15571;50.974;13.936;2022-07-29T08:46:13;48.33;;;30.37;;
28309;SDS011;15571;50.974;13.936;2022-07-29T08:49:21;48.13;;;30.20;;
28309;SDS011;15571;50.974;13.936;2022-07-29T08:52:27;53.60;;;30.02;;
28309;SDS011;15571;50.974;13.936;2022-07-29T08:55:34;49.05;;;30.35;;
28309;SDS011;15571;50.974;13.936;2022-07-29T08:58:45;53.17;;;29.02;;
28309;SDS011;15571;50.974;13.936;2022-07-29T09:01:49;44.85;;;28.30;;
28309;SDS011;15571;50.974;13.936;2022-07-29T09:04:56;46.83;;;29.20;;
28309;SDS011;15571;50.974;13.936;2022-07-29T09:08:03;39.05;;;21.48;;
28309;SDS011;15571;50.974;13.936;2022-07-29T09:11:07;39.65;;;21.02;;
28309;SDS011;15571;50.974;13.936;2022-07-29T09:14:14;35.13;;;19.70;;
28309;SDS011;15571;50.974;13.936;2022-07-29T09:17:18;31.52;;;19.83;;
28309;SDS011;15571;50.974;13.936;2022-07-29T09:20:44;32.75;;;18.15;;
28309;SDS011;15571;50.974;13.936;2022-07-29T09:24:13;29.00;;;16.90;;
28309;SDS011;15571;50.974;13.936;2022-07-29T09:27:20;28.33;;;16.27;;
28309;SDS011;15571;50.974;13.936;2022-07-29T09:30:31;26.52;;;15.93;;
28309;SDS011;15571;50.974;13.936;2022-07-29T09:33:36;25.00;;;15.65;;
28309;SDS011;15571;50.974;13.936;2022-07-29T09:36:41;30.10;;;15.05;;
28309;SDS011;15571;50.974;13.936;2022-07-29T09:39:46;22.27;;;13.20;;
28309;SDS011;15571;50.974;13.936;2022-07-29T09:42:55;25.08;;;14.88;;
28309;SDS011;15571;50.974;13.936;2022-07-29T09:46:12;21.30;;;13.57;;
28309;SDS011;15571;50.974;13.936;2022-07-29T09:49:16;24.73;;;13.77;;
28309;SDS011;15571;50.974;13.936;2022-07-29T09:52:23;20.35;;;11.63;;
28309;SDS011;15571;50.974;13.936;2022-07-29T09:55:28;15.80;;;8.85;;
28309;SDS011;15571;50.974;13.936;2022-07-29T09:58:33;12.50;;;8.55;;
28309;SDS011;15571;50.974;13.936;2022-07-29T10:01:38;13.32;;;8.93;;
28309;SDS011;15571;50.974;13.936;2022-07-29T10:04:42;12.48;;;7.57;;
28309;SDS011;15571;50.974;13.936;2022-07-29T10:07:46;5.47;;;4.47;;
28309;SDS011;15571;50.974;13.936;2022-07-29T10:10:50;11.77;;;3.92;;
28309;SDS011;15571;50.974;13.936;2022-07-29T10:13:55;3.92;;;3.20;;
28309;SDS011;15571;50.974;13.936;2022-07-29T10:17:00;4.25;;;3.15;;
28309;SDS011;15571;50.974;13.936;2022-07-29T10:20:06;5.57;;;3.15;;
28309;SDS011;15571;50.974;13.936;2022-07-29T10:23:10;5.03;;;2.83;;
28309;SDS011;15571;50.974;13.936;2022-07-29T10:26:14;3.92;;;2.67;;
28309;SDS011;15571;50.974;13.936;2022-07-29T10:29:22;5.70;;;2.60;;
28309;SDS011;15571;50.974;13.936;2022-07-29T10:32:32;3.03;;;2.72;;
28309;SDS011;15571;50.974;13.936;2022-07-29T10:35:59;3.70;;;2.80;;
28309;SDS011;15571;50.974;13.936;2022-07-29T10:39:16;5.45;;;2.75;;
28309;SDS011;15571;50.974;13.936;2022-07-29T10:42:30;3.03;;;2.45;;
28309;SDS011;15571;50.974;13.936;2022-07-29T10:45:33;3.00;;;2.42;;
28309;SDS011;15571;50.974;13.936;2022-07-29T10:48:47;3.85;;;2.65;;
28309;SDS011;15571;50.974;13.936;2022-07-29T10:52:08;4.82;;;3.13;;
28309;SDS011;15571;50.974;13.936;2022-07-29T10:58:43;4.43;;;3.38;;
28309;SDS011;15571;50.974;13.936;2022-07-29T11:01:49;6.35;;;4.10;;
28309;SDS011;15571;50.974;13.936;2022-07-29T11:05:02;6.05;;;3.75;;
28309;SDS011;15571;50.974;13.936;2022-07-29T11:11:30;4.38;;;2.85;;
28309;SDS011;15571;50.974;13.936;2022-07-29T11:18:08;8.52;;;5.13;;
28309;SDS011;15571;50.974;13.936;2022-07-29T11:24:41;8.40;;;6.20;;
28309;SDS011;15571;50.974;13.936;2022-07-29T11:27:45;5.75;;;4.05;;
28309;SDS011;15571;50.974;13.936;2022-07-29T11:30:53;7.25;;;4.82;;
28309;SDS011;15571;50.974;13.936;2022-07-29T11:37:31;8.95;;;5.07;;
28309;SDS011;15571;50.974;13.936;2022-07-29T11:40:35;8.40;;;5.68;;
28309;SDS011;15571;50.974;13.936;2022-07-29T11:43:48;8.27;;;5.47;;
28309;SDS011;15571;50.974;13.936;2022-07-29T11:46:52;7.55;;;5.70;;
28309;SDS011;15571;50.974;13.936;2022-07-29T11:49:58;10.98;;;5.25;;
28309;SDS011;15571;50.974;13.936;2022-07-29T11:53:11;8.10;;;3.85;;
28309;SDS011;15571;50.974;13.936;2022-07-29T11:56:17;4.15;;;3.58;;
28309;SDS011;15571;50.974;13.936;2022-07-29T11:59:28;6.93;;;4.35;;
28309;SDS011;15571;50.974;13.936;2022-07-29T12:02:40;7.28;;;4.40;;
28309;SDS011;15571;50.974;13.936;2022-07-29T12:05:53;7.00;;;4.47;;
28309;SDS011;15571;50.974;13.936;2022-07-29T12:08:59;6.75;;;4.45;;
28309;SDS011;15571;50.974;13.936;2022-07-29T12:12:06;5.85;;;4.43;;
28309;SDS011;15571;50.974;13.936;2022-07-29T12:15:14;4.35;;;3.20;;
28309;SDS011;15571;50.974;13.936;2022-07-29T12:18:22;3.58;;;3.28;;
28309;SDS011;15571;50.974;13.936;2022-07-29T12:21:29;5.05;;;3.03;;
28309;SDS011;15571;50.974;13.936;2022-07-29T12:24:50;2.85;;;2.60;;
28309;SDS011;15571;50.974;13.936;2022-07-29T12:28:00;4.47;;;3.13;;
28309;SDS011;15571;50.974;13.936;2022-07-29T12:34:17;3.78;;;3.00;;
28309;SDS011;15571;50.974;13.936;2022-07-29T12:37:25;3.33;;;2.55;;
28309;SDS011;15571;50.974;13.936;2022-07-29T12:40:33;3.53;;;3.08;;
28309;SDS011;15571;50.974;13.936;2022-07-29T12:43:36;3.53;;;3.13;;
28309;SDS011;15571;50.974;13.936;2022-07-29T12:46:41;2.63;;;2.42;;
28309;SDS011;15571;50.974;13.936;2022-07-29T12:50:07;4.65;;;2.92;;
28309;SDS011;15571;50.974;13.936;2022-07-29T12:53:16;5.32;;;3.20;;
28309;SDS011;15571;50.974;13.936;2022-07-29T12:56:24;5.13;;;3.00;;
28309;SDS011;15571;50.974;13.936;2022-07-29T12:59:31;7.35;;;3.42;;
28309;SDS011;15571;50.974;13.936;2022-07-29T13:02:37;4.03;;;3.45;;
28309;SDS011;15571;50.974;13.936;2022-07-29T13:05:43;6.40;;;3.55;;
28309;SDS011;15571;50.974;13.936;2022-07-29T13:09:02;5.90;;;3.13;;
28309;SDS011;15571;50.974;13.936;2022-07-29T13:12:10;4.43;;;3.20;;
28309;SDS011;15571;50.974;13.936;2022-07-29T13:15:20;5.88;;;3.53;;
28309;SDS011;15571;50.974;13.936;2022-07-29T13:18:27;3.65;;;3.30;;
28309;SDS011;15571;50.974;13.936;2022-07-29T13:21:34;5.07;;;2.97;;
28309;SDS011;15571;50.974;13.936;2022-07-29T13:24:50;4.18;;;3.30;;
28309;SDS011;15571;50.974;13.936;2022-07-29T13:27:58;5.60;;;3.50;;
28309;SDS011;15571;50.974;13.936;2022-07-29T13:31:03;6.50;;;3.08;;
28309;SDS011;15571;50.974;13.936;2022-07-29T13:34:08;5.00;;;3.00;;
28309;SDS011;15571;50.974;13.936;2022-07-29T13:37:12;5.13;;;3.08;;
28309;SDS011;15571;50.974;13.936;2022-07-29T13:40:21;7.85;;;3.50;;
28309;SDS011;15571;50.974;13.936;2022-07-29T13:43:43;4.07;;;3.28;;
28309;SDS011;15571;50.974;13.936;2022-07-29T13:46:47;3.05;;;2.60;;
28309;SDS011;15571;50.974;13.936;2022-07-29T13:49:52;3.17;;;2.90;;
28309;SDS011;15571;50.974;13.936;2022-07-29T13:53:01;3.30;;;2.95;;
28309;SDS011;15571;50.974;13.936;2022-07-29T13:56:05;3.65;;;3.10;;
28309;SDS011;15571;50.974;13.936;2022-07-29T13:59:11;3.72;;;3.33;;
28309;SDS011;15571;50.974;13.936;2022-07-29T14:02:15;4.72;;;3.22;;
28309;SDS011;15571;50.974;13.936;2022-07-29T14:05:21;5.03;;;2.97;;
28309;SDS011;15571;50.974;13.936;2022-07-29T14:08:27;3.63;;;2.97;;
28309;SDS011;15571;50.974;13.936;2022-07-29T14:11:37;3.00;;;2.55;;
28309;SDS011;15571;50.974;13.936;2022-07-29T14:14:43;3.22;;;2.75;;
28309;SDS011;15571;50.974;13.936;2022-07-29T14:17:49;5.95;;;3.65;;
28309;SDS011;15571;50.974;13.936;2022-07-29T14:20:55;6.25;;;4.25;;
28309;SDS011;15571;50.974;13.936;2022-07-29T14:24:01;5.03;;;3.88;;
28309;SDS011;15571;50.974;13.936;2022-07-29T14:27:09;5.97;;;3.70;;
28309;SDS011;15571;50.974;13.936;2022-07-29T14:30:16;8.20;;;4.72;;
28309;SDS011;15571;50.974;13.936;2022-07-29T14:33:23;6.53;;;5.60;;
28309;SDS011;15571;50.974;13.936;2022-07-29T14:36:28;10.40;;;4.45;;
28309;SDS011;15571;50.974;13.936;2022-07-29T14:39:48;4.70;;;3.88;;
28309;SDS011;15571;50.974;13.936;2022-07-29T14:43:05;4.47;;;3.53;;
28309;SDS011;15571;50.974;13.936;2022-07-29T14:46:09;4.80;;;4.25;;
28309;SDS011;15571;50.974;13.936;2022-07-29T14:49:12;6.65;;;4.15;;
28309;SDS011;15571;50.974;13.936;2022-07-29T14:52:16;8.57;;;4.97;;
28309;SDS011;15571;50.974;13.936;2022-07-29T14:58:43;13.50;;;7.78;;
28309;SDS011;15571;50.974;13.936;2022-07-29T15:01:48;11.25;;;8.10;;
28309;SDS011;15571;50.974;13.936;2022-07-29T15:04:50;11.10;;;7.07;;
28309;SDS011;15571;50.974;13.936;2022-07-29T15:07:53;8.00;;;5.70;;
28309;SDS011;15571;50.974;13.936;2022-07-29T15:10:56;10.32;;;4.95;;
28309;SDS011;15571;50.974;13.936;2022-07-29T15:14:00;7.50;;;4.00;;
28309;SDS011;15571;50.974;13.936;2022-07-29T15:17:04;8.30;;;4.57;;
28309;SDS011;15571;50.974;13.936;2022-07-29T15:20:08;9.40;;;6.47;;
28309;SDS011;15571;50.974;13.936;2022-07-29T15:23:12;12.90;;;7.85;;
28309;SDS011;15571;50.974;13.936;2022-07-29T15:26:15;10.20;;;7.85;;
28309;SDS011;15571;50.974;13.936;2022-07-29T15:29:19;11.20;;;7.65;;
28309;SDS011;15571;50.974;13.936;2022-07-29T15:32:31;12.90;;;8.63;;
28309;SDS011;15571;50.974;13.936;2022-07-29T15:35:35;13.60;;;8.68;;
28309;SDS011;15571;50.974;13.936;2022-07-29T15:38:39;10.23;;;8.13;;
28309;SDS011;15571;50.974;13.936;2022-07-29T15:41:42;15.45;;;8.38;;
28309;SDS011;15571;50.974;13.936;2022-07-29T15:44:46;13.38;;;7.90;;
28309;SDS011;15571;50.974;13.936;2022-07-29T15:47:51;13.10;;;9.65;;
28309;SDS011;15571;50.974;13.936;2022-07-29T15:50:54;12.27;;;9.63;;
28309;SDS011;15571;50.974;13.936;2022-07-29T15:54:04;19.95;;;11.63;;
28309;SDS011;15571;50.974;13.936;2022-07-29T15:57:10;15.07;;;10.38;;
28309;SDS011;15571;50.974;13.936;2022-07-29T16:00:15;19.25;;;10.98;;
28309;SDS011;15571;50.974;13.936;2022-07-29T16:03:23;16.00;;;10.93;;
28309;SDS011;15571;50.974;13.936;2022-07-29T16:06:28;20.20;;;11.13;;
28309;SDS011;15571;50.974;13.936;2022-07-29T16:09:31;16.63;;;11.55;;
28309;SDS011;15571;50.974;13.936;2022-07-29T16:12:35;17.15;;;10.82;;
28309;SDS011;15571;50.974;13.936;2022-07-29T16:15:38;16.90;;;11.05;;
28309;SDS011;15571;50.974;13.936;2022-07-29T16:18:47;12.75;;;9.43;;
28309;SDS011;15571;50.974;13.936;2022-07-29T16:21:50;12.02;;;9.38;;
28309;SDS011;15571;50.974;13.936;2022-07-29T16:24:54;9.82;;;7.97;;
28309;SDS011;15571;50.974;13.936;2022-07-29T16:28:00;15.77;;;9.63;;
28309;SDS011;15571;50.974;13.936;2022-07-29T16:31:11;24.95;;;14.02;;
28309;SDS011;15571;50.974;13.936;2022-07-29T16:34:17;20.17;;;12.45;;
28309;SDS011;15571;50.974;13.936;2022-07-29T16:37:31;20.55;;;12.85;;
28309;SDS011;15571;50.974;13.936;2022-07-29T16:40:38;19.52;;;12.30;;
28309;SDS011;15571;50.974;13.936;2022-07-29T16:43:45;13.57;;;11.23;;
28309;SDS011;15571;50.974;13.936;2022-07-29T16:46:51;15.43;;;10.18;;
28309;SDS011;15571;50.974;13.936;2022-07-29T16:50:01;12.35;;;8.82;;
28309;SDS011;15571;50.974;13.936;2022-07-29T16:53:06;13.40;;;9.30;;
28309;SDS011;15571;50.974;13.936;2022-07-29T16:56:14;17.15;;;9.98;;
28309;SDS011;15571;50.974;13.936;2022-07-29T16:59:22;10.05;;;6.93;;
28309;SDS011;15571;50.974;13.936;2022-07-29T17:02:31;9.35;;;6.07;;
28309;SDS011;15571;50.974;13.936;2022-07-29T17:05:46;9.30;;;5.90;;
28309;SDS011;15571;50.974;13.936;2022-07-29T17:08:52;10.20;;;6.03;;
28309;SDS011;15571;50.974;13.936;2022-07-29T17:11:59;7.55;;;4.80;;
28309;SDS011;15571;50.974;13.936;2022-07-29T17:15:04;7.97;;;4.43;;
28309;SDS011;15571;50.974;13.936;2022-07-29T17:18:09;8.05;;;5.05;;
28309;SDS011;15571;50.974;13.936;2022-07-29T17:21:16;8.43;;;5.15;;
28309;SDS011;15571;50.974;13.936;2022-07-29T17:24:22;10.90;;;4.90;;
28309;SDS011;15571;50.974;13.936;2022-07-29T17:27:26;6.85;;;4.20;;
28309;SDS011;15571;50.974;13.936;2022-07-29T17:30:38;4.03;;;3.63;;
28309;SDS011;15571;50.974;13.936;2022-07-29T17:33:44;6.68;;;3.88;;
28309;SDS011;15571;50.974;13.936;2022-07-29T17:37:04;8.85;;;3.60;;
28309;SDS011;15571;50.974;13.936;2022-07-29T17:40:09;4.55;;;3.47;;
28309;SDS011;15571;50.974;13.936;2022-07-29T17:43:13;3.53;;;2.92;;
28309;SDS011;15571;50.974;13.936;2022-07-29T17:46:18;4.05;;;3.47;;
28309;SDS011;15571;50.974;13.936;2022-07-29T17:49:22;3.75;;;3.45;;
28309;SDS011;15571;50.974;13.936;2022-07-29T17:52:37;4.63;;;3.25;;
28309;SDS011;15571;50.974;13.936;2022-07-29T17:55:41;4.05;;;3.22;;
28309;SDS011;15571;50.974;13.936;2022-07-29T17:58:45;5.10;;;3.30;;
28309;SDS011;15571;50.974;13.936;2022-07-29T18:01:51;4.60;;;3.05;;
28309;SDS011;15571;50.974;13.936;2022-07-29T18:05:00;5.53;;;3.47;;
28309;SDS011;15571;50.974;13.936;2022-07-29T18:08:09;5.28;;;3.42;;
28309;SDS011;15571;50.974;13.936;2022-07-29T18:11:13;3.55;;;2.90;;
28309;SDS011;15571;50.974;13.936;2022-07-29T18:14:17;6.18;;;3.45;;
28309;SDS011;15571;50.974;13.936;2022-07-29T18:17:21;5.65;;;3.38;;
28309;SDS011;15571;50.974;13.936;2022-07-29T18:20:29;5.20;;;3.65;;
28309;SDS011;15571;50.974;13.936;2022-07-29T18:23:34;3.55;;;2.88;;
28309;SDS011;15571;50.974;13.936;2022-07-29T18:26:37;3.88;;;3.10;;
28309;SDS011;15571;50.974;13.936;2022-07-29T18:29:40;4.15;;;3.30;;
28309;SDS011;15571;50.974;13.936;2022-07-29T18:32:45;4.70;;;3.28;;